DHTOM EDLH-EDLH
Flight info
| Callsign | DHTOM |
|---|---|
| Flight time | 0h 12m |
| Altitude | 2000 |
| Route | DCT |
| Aircraft | EC45/L-V/N |
Departure
| Time | 2026-04-11 15:55 |
|---|---|
| Airport | Hamm-Lippewiesen Airfield (EDLH) |
Arrival
| Time | 2026-04-11 16:08 |
|---|---|
| Airport | Hamm-Lippewiesen Airfield (EDLH) |
| Time | Latitude | Longitude | Altitude | Speed | Heading |
|---|---|---|---|---|---|
| 2026-04-11 15:46 | 51.68979 | 7.81415 | 184 ft | 0 kts | 152° |
| 2026-04-11 15:53 | 51.68974 | 7.81400 | 201 ft | 1 kts | 140° |
| 2026-04-11 15:53 | 51.68954 | 7.81421 | 188 ft | 6 kts | 139° |
| 2026-04-11 15:53 | 51.68976 | 7.81446 | 201 ft | 11 kts | 80° |
| 2026-04-11 15:54 | 51.68979 | 7.81393 | 299 ft | 10 kts | 82° |
| 2026-04-11 15:54 | 51.68951 | 7.81644 | 439 ft | 44 kts | 80° |
| 2026-04-11 15:54 | 51.69022 | 7.82274 | 570 ft | 71 kts | 69° |
| 2026-04-11 15:54 | 51.69243 | 7.83024 | 691 ft | 79 kts | 66° |
| 2026-04-11 15:55 | 51.69503 | 7.83875 | 750 ft | 88 kts | 65° |
| 2026-04-11 15:55 | 51.69787 | 7.84725 | 996 ft | 86 kts | 66° |
| 2026-04-11 15:55 | 51.70103 | 7.85527 | 1114 ft | 87 kts | 66° |
| 2026-04-11 15:55 | 51.70475 | 7.86470 | 1227 ft | 112 kts | 65° |
| 2026-04-11 15:56 | 51.70873 | 7.87552 | 1375 ft | 110 kts | 66° |
| 2026-04-11 15:56 | 51.71276 | 7.88611 | 1454 ft | 111 kts | 65° |
| 2026-04-11 15:56 | 51.71658 | 7.89699 | 1493 ft | 110 kts | 70° |
| 2026-04-11 15:56 | 51.71939 | 7.90831 | 1512 ft | 106 kts | 79° |
| 2026-04-11 15:57 | 51.72187 | 7.91926 | 1518 ft | 104 kts | 80° |
| 2026-04-11 15:57 | 51.72448 | 7.93017 | 1517 ft | 106 kts | 76° |
| 2026-04-11 15:57 | 51.72763 | 7.94102 | 1525 ft | 107 kts | 73° |
| 2026-04-11 15:57 | 51.73076 | 7.95182 | 1527 ft | 106 kts | 73° |
| 2026-04-11 15:58 | 51.73405 | 7.96248 | 1528 ft | 106 kts | 72° |
| 2026-04-11 15:58 | 51.73563 | 7.97328 | 1532 ft | 96 kts | 105° |
| 2026-04-11 15:58 | 51.73246 | 7.98190 | 1529 ft | 87 kts | 149° |
| 2026-04-11 15:58 | 51.72680 | 7.98324 | 1528 ft | 86 kts | 192° |
| 2026-04-11 15:59 | 51.72134 | 7.97922 | 1531 ft | 86 kts | 193° |
| 2026-04-11 15:59 | 51.71553 | 7.97792 | 1527 ft | 85 kts | 183° |
| 2026-04-11 15:59 | 51.70961 | 7.97721 | 1530 ft | 85 kts | 183° |
| 2026-04-11 15:59 | 51.70365 | 7.97630 | 1524 ft | 86 kts | 192° |
| 2026-04-11 16:00 | 51.69917 | 7.96985 | 1523 ft | 94 kts | 235° |
| 2026-04-11 16:00 | 51.69905 | 7.95899 | 1529 ft | 106 kts | 279° |
| 2026-04-11 16:00 | 51.70200 | 7.94778 | 1527 ft | 107 kts | 284° |
| 2026-04-11 16:00 | 51.70483 | 7.93679 | 1526 ft | 107 kts | 283° |
| 2026-04-11 16:01 | 51.70770 | 7.92573 | 1525 ft | 107 kts | 284° |
| 2026-04-11 16:01 | 51.71011 | 7.91435 | 1524 ft | 105 kts | 278° |
| 2026-04-11 16:01 | 51.71217 | 7.90335 | 1468 ft | 102 kts | 277° |
| 2026-04-11 16:01 | 51.71389 | 7.89247 | 1444 ft | 99 kts | 274° |
| 2026-04-11 16:02 | 51.71549 | 7.88163 | 1434 ft | 100 kts | 277° |
| 2026-04-11 16:02 | 51.71976 | 7.87213 | 1431 ft | 109 kts | 311° |
| 2026-04-11 16:02 | 51.72667 | 7.86650 | 1429 ft | 113 kts | 335° |
| 2026-04-11 16:02 | 51.73407 | 7.86215 | 1421 ft | 113 kts | 331° |
| 2026-04-11 16:03 | 51.73943 | 7.85393 | 1392 ft | 103 kts | 287° |
| 2026-04-11 16:03 | 51.74001 | 7.84345 | 1299 ft | 93 kts | 249° |
| 2026-04-11 16:03 | 51.73809 | 7.83353 | 1258 ft | 92 kts | 244° |
| 2026-04-11 16:03 | 51.73607 | 7.82343 | 1229 ft | 97 kts | 244° |
| 2026-04-11 16:04 | 51.73397 | 7.81332 | 1232 ft | 92 kts | 243° |
| 2026-04-11 16:04 | 51.73207 | 7.80361 | 1222 ft | 91 kts | 244° |
| 2026-04-11 16:04 | 51.73015 | 7.79388 | 1212 ft | 92 kts | 243° |
| 2026-04-11 16:04 | 51.72811 | 7.78367 | 1214 ft | 97 kts | 244° |
| 2026-04-11 16:05 | 51.72472 | 7.77475 | 1217 ft | 91 kts | 214° |
| 2026-04-11 16:05 | 51.71913 | 7.77138 | 1216 ft | 86 kts | 186° |
| 2026-04-11 16:05 | 51.71316 | 7.77169 | 1210 ft | 85 kts | 170° |
| 2026-04-11 16:06 | 51.70272 | 7.77670 | 1065 ft | 73 kts | 166° |
| 2026-04-11 16:06 | 51.69804 | 7.77896 | 991 ft | 64 kts | 166° |
| 2026-04-11 16:06 | 51.69381 | 7.78087 | 950 ft | 63 kts | 166° |
| 2026-04-11 16:06 | 51.69006 | 7.78259 | 912 ft | 55 kts | 164° |
| 2026-04-11 16:07 | 51.68648 | 7.78557 | 849 ft | 62 kts | 144° |
| 2026-04-11 16:07 | 51.68387 | 7.79113 | 772 ft | 59 kts | 116° |
| 2026-04-11 16:07 | 51.68350 | 7.79767 | 693 ft | 62 kts | 94° |
| 2026-04-11 16:07 | 51.68472 | 7.80364 | 640 ft | 50 kts | 57° |
| 2026-04-11 16:08 | 51.68704 | 7.80704 | 506 ft | 40 kts | 63° |
| 2026-04-11 16:08 | 51.68900 | 7.80988 | 407 ft | 36 kts | 78° |
| 2026-04-11 16:08 | 51.68979 | 7.81191 | 388 ft | 7 kts | 78° |
| 2026-04-11 16:08 | 51.68978 | 7.81197 | 388 ft | 1 kts | 85° |
| 2026-04-11 16:09 | 51.68977 | 7.81204 | 369 ft | 2 kts | 115° |
| 2026-04-11 16:09 | 51.68964 | 7.81234 | 319 ft | 5 kts | 114° |
| 2026-04-11 16:09 | 51.68950 | 7.81285 | 292 ft | 5 kts | 99° |
| 2026-04-11 16:09 | 51.68952 | 7.81324 | 247 ft | 2 kts | 129° |
| 2026-04-11 16:10 | 51.68948 | 7.81335 | 223 ft | 1 kts | 144° |
| 2026-04-11 16:10 | 51.68940 | 7.81342 | 215 ft | 1 kts | 129° |
| 2026-04-11 16:10 | 51.68940 | 7.81349 | 205 ft | 1 kts | 147° |
| 2026-04-11 16:10 | 51.68935 | 7.81353 | 208 ft | 0 kts | 148° |
| 2026-04-11 16:11 | 51.68938 | 7.81359 | 192 ft | 1 kts | 182° |